Time;durP1;ratioP1;P1;durP2;ratioP2;P2;SDS_P1;SDS_P2;PMS_P1;PMS_P2;Temp;Humidity;BMP_temperature;BMP_pressure;BME280_temperature;BME280_humidity;BME280_pressure;Samples;Min_cycle;Max_cycle;Signal;HPM_P1;HPM_P2
2020/12/31 00:00:55;;;;;;;5.75;1.85;;;4.90;61.40;;;;;;5026067;28;80767;-79
2020/12/31 00:03:21;;;;;;;5.40;2.08;;;4.90;61.50;;;;;;5027668;28;80050;-75
2020/12/31 00:05:46;;;;;;;5.63;2.72;;;4.90;61.60;;;;;;5007149;28;81615;-77
2020/12/31 00:08:12;;;;;;;5.53;2.47;;;4.90;61.60;;;;;;5029463;28;80170;-71
2020/12/31 00:10:38;;;;;;;6.35;2.92;;;4.90;61.60;;;;;;4996502;28;83527;-73
2020/12/31 00:13:03;;;;;;;6.03;2.30;;;4.90;61.60;;;;;;5009304;28;80339;-75
2020/12/31 00:15:29;;;;;;;3.85;1.90;;;4.90;61.70;;;;;;5009999;28;80666;-77
2020/12/31 00:17:55;;;;;;;5.78;2.08;;;4.80;61.60;;;;;;4991120;28;83046;-76
2020/12/31 00:20:21;;;;;;;5.30;2.20;;;4.90;61.60;;;;;;4990854;28;80863;-72
2020/12/31 00:22:46;;;;;;;5.00;1.75;;;4.80;61.70;;;;;;5009474;28;80072;-72
2020/12/31 00:25:12;;;;;;;7.90;1.90;;;4.90;61.70;;;;;;4990194;28;82514;-76
2020/12/31 00:27:38;;;;;;;4.80;2.25;;;4.80;61.80;;;;;;4990579;28;80423;-75
2020/12/31 00:30:16;;;;;;;4.03;1.90;;;4.90;62.20;;;;;;5009525;28;80685;-75
2020/12/31 00:32:42;;;;;;;3.40;1.90;;;4.80;62.30;;;;;;5010626;28;80173;-74
2020/12/31 00:35:08;;;;;;;6.93;2.28;;;4.70;62.20;;;;;;4993459;28;82685;-82
2020/12/31 00:37:34;;;;;;;4.68;1.90;;;4.80;62.40;;;;;;4991868;28;80510;-79
2020/12/31 00:40:02;;;;;;;8.20;2.28;;;4.70;62.40;;;;;;4991130;28;83155;-75
2020/12/31 00:42:28;;;;;;;6.55;2.70;;;4.60;62.50;;;;;;4991020;28;80637;-76
2020/12/31 00:44:54;;;;;;;4.82;2.17;;;4.60;62.70;;;;;;5009888;28;79769;-75
2020/12/31 00:47:20;;;;;;;7.68;2.15;;;4.60;62.80;;;;;;4991104;28;82911;-69
2020/12/31 00:49:45;;;;;;;5.68;2.10;;;4.60;62.80;;;;;;5009908;28;80592;-71
2020/12/31 00:52:11;;;;;;;6.25;2.47;;;4.50;62.80;;;;;;4990940;28;82845;-71
2020/12/31 00:54:37;;;;;;;6.03;2.55;;;4.50;63.00;;;;;;4990874;28;82476;-70
2020/12/31 00:57:03;;;;;;;8.05;3.17;;;4.50;63.20;;;;;;4990899;28;81793;-71
2020/12/31 00:59:28;;;;;;;4.40;2.47;;;4.50;63.30;;;;;;5008970;28;80616;-68
2020/12/31 01:01:54;;;;;;;4.53;2.13;;;4.40;63.40;;;;;;5009550;28;80148;-68
2020/12/31 01:04:20;;;;;;;5.78;2.40;;;4.40;63.50;;;;;;4991003;28;83379;-74
2020/12/31 01:06:46;;;;;;;4.78;1.95;;;4.40;63.60;;;;;;4990603;28;81364;-74
2020/12/31 01:09:11;;;;;;;2.97;1.80;;;4.40;63.80;;;;;;5008710;28;80751;-70
2020/12/31 01:11:38;;;;;;;5.80;2.30;;;4.40;63.90;;;;;;5008532;28;80137;-69
2020/12/31 01:14:05;;;;;;;5.25;1.73;;;4.40;64.00;;;;;;4990454;28;83338;-77
2020/12/31 01:16:31;;;;;;;4.88;2.33;;;4.40;64.00;;;;;;5008392;28;80374;-74
2020/12/31 01:18:57;;;;;;;7.15;2.47;;;4.40;64.00;;;;;;5008362;28;80648;-81
2020/12/31 01:21:22;;;;;;;5.25;1.90;;;4.40;64.10;;;;;;5008304;28;80639;-70
2020/12/31 01:23:48;;;;;;;4.88;2.20;;;4.40;64.10;;;;;;4990102;28;81661;-73
2020/12/31 01:26:27;;;;;;;5.88;1.75;;;4.30;64.30;;;;;;5008701;28;80773;-78
2020/12/31 01:28:53;;;;;;;4.63;1.85;;;4.30;64.30;;;;;;4989937;28;80835;-76
2020/12/31 01:31:19;;;;;;;3.40;1.45;;;4.30;64.40;;;;;;4990103;28;82790;-76
2020/12/31 01:33:45;;;;;;;4.93;2.05;;;4.30;64.50;;;;;;5008059;28;80377;-76
2020/12/31 01:36:10;;;;;;;5.18;2.40;;;4.30;64.50;;;;;;4989510;28;82739;-72
2020/12/31 01:38:36;;;;;;;4.40;2.25;;;4.30;64.60;;;;;;4989958;28;80741;-82
2020/12/31 01:41:02;;;;;;;3.88;1.45;;;4.30;64.70;;;;;;4989688;28;81335;-74
2020/12/31 01:43:27;;;;;;;5.55;2.42;;;4.20;64.70;;;;;;4990048;28;82541;-74
2020/12/31 01:45:54;;;;;;;5.13;2.00;;;4.20;64.80;;;;;;5008363;28;80548;-76
2020/12/31 01:48:21;;;;;;;7.25;1.77;;;4.20;64.80;;;;;;5008257;28;80521;-71
2020/12/31 01:50:47;;;;;;;5.38;2.13;;;4.20;64.90;;;;;;5007352;28;81449;-79
2020/12/31 01:53:14;;;;;;;5.07;1.95;;;4.20;64.80;;;;;;4989889;28;82603;-73
2020/12/31 01:55:41;;;;;;;6.03;2.03;;;4.20;65.00;;;;;;5008225;28;80659;-74
2020/12/31 01:58:08;;;;;;;7.07;2.22;;;4.10;65.10;;;;;;5007428;28;80585;-70
2020/12/31 02:00:33;;;;;;;6.57;2.33;;;4.10;65.20;;;;;;5006484;28;79830;-71
2020/12/31 02:03:00;;;;;;;9.68;2.40;;;4.00;65.30;;;;;;4988958;28;82289;-70
2020/12/31 02:05:26;;;;;;;6.55;2.60;;;4.00;65.50;;;;;;4989417;28;83632;-70
2020/12/31 02:07:52;;;;;;;5.32;2.42;;;4.00;65.50;;;;;;5007375;28;80414;-70
2020/12/31 02:10:18;;;;;;;5.70;2.92;;;4.00;65.50;;;;;;5007878;28;80789;-78
2020/12/31 02:12:44;;;;;;;8.35;2.88;;;3.90;65.70;;;;;;5008078;28;80899;-70
2020/12/31 02:15:16;;;;;;;5.10;2.67;;;3.90;65.70;;;;;;5007523;28;80270;-79
2020/12/31 02:17:45;;;;;;;8.10;2.75;;;3.90;65.90;;;;;;4989630;28;81660;-70
2020/12/31 02:20:12;;;;;;;5.82;3.00;;;3.90;65.90;;;;;;5007276;28;79625;-74
2020/12/31 02:22:38;;;;;;;4.28;2.05;;;3.90;65.80;;;;;;5007568;28;80690;-73
2020/12/31 02:25:04;;;;;;;5.60;2.10;;;3.90;65.80;;;;;;5007537;28;80144;-75
2020/12/31 02:27:30;;;;;;;7.20;2.30;;;3.90;65.80;;;;;;5007622;28;80958;-75
2020/12/31 02:29:56;;;;;;;4.95;2.20;;;3.90;65.90;;;;;;4989249;28;83266;-73
2020/12/31 02:32:21;;;;;;;6.63;2.03;;;3.90;65.90;;;;;;5006826;28;81209;-74
2020/12/31 02:34:47;;;;;;;3.38;1.80;;;3.80;66.00;;;;;;5007484;28;80346;-73
2020/12/31 02:37:13;;;;;;;5.95;1.98;;;3.80;66.10;;;;;;4988987;28;83764;-78
2020/12/31 02:39:39;;;;;;;6.03;2.20;;;3.90;66.00;;;;;;5006827;28;81533;-77
2020/12/31 02:42:04;;;;;;;5.82;2.55;;;3.80;66.10;;;;;;4989584;28;83397;-79
2020/12/31 02:44:30;;;;;;;6.43;2.70;;;3.80;66.10;;;;;;4988959;28;82420;-80
2020/12/31 02:46:56;;;;;;;5.38;2.38;;;3.80;66.00;;;;;;4989365;28;82247;-81
2020/12/31 02:49:21;;;;;;;4.43;1.88;;;3.70;66.20;;;;;;5007225;28;80177;-82
2020/12/31 02:51:47;;;;;;;4.78;2.08;;;3.70;66.40;;;;;;4989269;28;82818;-78
2020/12/31 02:54:13;;;;;;;5.15;2.08;;;3.70;66.50;;;;;;5007675;28;80251;-74
2020/12/31 02:56:39;;;;;;;4.28;2.03;;;3.60;66.60;;;;;;4988968;28;80945;-77
2020/12/31 02:59:05;;;;;;;9.98;2.53;;;3.60;66.70;;;;;;4988234;28;81577;-84
2020/12/31 03:01:31;;;;;;;5.32;2.22;;;3.60;66.90;;;;;;5006876;28;80590;-76
2020/12/31 03:03:57;;;;;;;6.30;2.03;;;3.50;66.90;;;;;;4988819;28;81638;-82
2020/12/31 03:06:23;;;;;;;8.38;2.35;;;3.50;67.00;;;;;;5006878;28;79996;-70
2020/12/31 03:08:49;;;;;;;4.03;1.90;;;3.50;67.10;;;;;;5006629;28;80188;-69
2020/12/31 03:11:20;;;;;;;4.30;1.98;;;3.50;67.10;;;;;;5006724;28;80414;-78
2020/12/31 03:13:47;;;;;;;4.15;1.98;;;3.50;67.20;;;;;;5006970;28;79840;-81
2020/12/31 03:16:13;;;;;;;7.35;2.00;;;3.50;67.20;;;;;;5006745;28;80756;-78
2020/12/31 03:18:38;;;;;;;7.72;2.40;;;3.50;67.20;;;;;;4988228;28;80281;-71
2020/12/31 03:21:05;;;;;;;5.50;1.60;;;3.50;67.30;;;;;;5006332;28;79580;-76
2020/12/31 03:23:31;;;;;;;6.18;1.90;;;3.50;67.50;;;;;;5006837;28;80157;-75
2020/12/31 03:25:56;;;;;;;3.53;1.88;;;3.50;67.50;;;;;;5006554;28;80466;-77
2020/12/31 03:28:22;;;;;;;5.93;2.13;;;3.40;67.50;;;;;;5006536;28;80207;-72
2020/12/31 03:30:48;;;;;;;6.65;2.10;;;3.40;67.60;;;;;;4987934;28;82989;-72
2020/12/31 03:33:15;;;;;;;5.03;1.75;;;3.40;67.60;;;;;;4988185;28;82314;-71
2020/12/31 03:35:46;;;;;;;5.32;1.80;;;3.40;67.70;;;;;;4988596;28;82821;-78
2020/12/31 03:38:13;;;;;;;4.53;1.80;;;3.40;67.70;;;;;;4988740;28;81795;-78
2020/12/31 03:40:40;;;;;;;5.35;2.28;;;3.40;67.70;;;;;;5006515;28;80610;-75
2020/12/31 03:43:06;;;;;;;5.40;2.83;;;3.40;67.70;;;;;;4988645;28;80470;-73
2020/12/31 03:45:33;;;;;;;4.72;1.75;;;3.40;67.90;;;;;;4988299;28;82374;-79
2020/12/31 03:47:59;;;;;;;8.48;2.45;;;3.30;67.90;;;;;;5007132;28;80841;-81
2020/12/31 03:50:25;;;;;;;6.88;2.65;;;3.30;68.10;;;;;;4987956;28;83455;-73
2020/12/31 03:52:51;;;;;;;5.80;1.85;;;3.20;68.10;;;;;;5006492;28;80220;-72
2020/12/31 03:55:17;;;;;;;4.13;1.98;;;3.30;68.20;;;;;;5006571;28;80296;-78
2020/12/31 03:57:43;;;;;;;5.72;2.15;;;3.30;68.20;;;;;;5005645;28;80668;-70
2020/12/31 04:00:09;;;;;;;5.57;2.20;;;3.20;68.20;;;;;;5006388;28;80358;-76
2020/12/31 04:02:35;;;;;;;6.25;2.65;;;3.20;68.30;;;;;;5005808;28;80226;-75
2020/12/31 04:05:01;;;;;;;5.90;2.85;;;3.20;68.30;;;;;;5006043;28;80768;-71
2020/12/31 04:07:27;;;;;;;7.22;3.30;;;3.10;68.30;;;;;;5006369;28;80391;-69
2020/12/31 04:09:53;;;;;;;6.38;2.65;;;3.10;68.40;;;;;;5006127;28;80745;-71
2020/12/31 04:12:19;;;;;;;7.95;3.78;;;3.10;68.40;;;;;;5006345;28;80667;-79
2020/12/31 04:14:45;;;;;;;8.02;3.03;;;3.00;68.40;;;;;;5006512;28;79632;-75
2020/12/31 04:17:11;;;;;;;9.48;3.25;;;3.00;68.50;;;;;;4987446;28;79968;-72
2020/12/31 04:19:42;;;;;;;7.70;3.00;;;3.00;68.40;;;;;;4987123;28;81087;-72
2020/12/31 04:22:08;;;;;;;6.05;2.30;;;3.00;68.40;;;;;;5005733;28;80712;-70
2020/12/31 04:24:35;;;;;;;8.13;2.95;;;2.90;68.30;;;;;;4988098;28;80904;-80
2020/12/31 04:27:01;;;;;;;8.60;2.92;;;2.90;68.30;;;;;;4985648;28;82771;-70
2020/12/31 04:29:27;;;;;;;6.05;2.50;;;2.90;68.40;;;;;;5006198;28;79713;-75
2020/12/31 04:31:53;;;;;;;4.97;2.35;;;2.90;68.50;;;;;;5004371;28;80364;-81
2020/12/31 04:34:18;;;;;;;9.90;2.88;;;2.90;68.50;;;;;;4985111;28;82530;-71
2020/12/31 04:36:44;;;;;;;5.72;2.08;;;2.90;68.50;;;;;;5006292;28;80368;-75
2020/12/31 04:39:10;;;;;;;7.25;2.50;;;2.90;68.50;;;;;;4987536;28;81747;-75
2020/12/31 04:41:36;;;;;;;5.55;2.15;;;2.90;68.40;;;;;;4987201;28;82531;-70
2020/12/31 04:44:02;;;;;;;11.25;2.67;;;2.90;68.50;;;;;;4987452;28;83469;-72
2020/12/31 04:46:30;;;;;;;7.53;3.25;;;2.90;68.50;;;;;;5005770;28;80225;-79
2020/12/31 04:49:08;;;;;;;6.78;2.00;;;2.90;68.50;;;;;;5005179;28;80500;-78
2020/12/31 04:51:36;;;;;;;5.40;2.70;;;2.80;68.60;;;;;;5005595;28;80548;-78
2020/12/31 04:54:08;;;;;;;5.97;2.05;;;2.80;68.60;;;;;;5005998;28;79903;-81
2020/12/31 04:56:38;;;;;;;9.15;2.70;;;2.90;68.60;;;;;;5006956;28;80740;-78
2020/12/31 04:59:05;;;;;;;6.65;2.13;;;2.80;68.60;;;;;;4990434;28;83046;-77
2020/12/31 05:01:31;;;;;;;5.65;2.03;;;2.70;68.60;;;;;;5008869;28;80358;-75
2020/12/31 05:03:57;;;;;;;4.10;2.25;;;2.70;68.60;;;;;;5009111;28;80839;-75
2020/12/31 05:06:25;;;;;;;3.63;2.05;;;2.70;68.70;;;;;;4990770;28;79866;-71
2020/12/31 05:08:51;;;;;;;5.88;2.40;;;2.70;68.90;;;;;;5008976;28;80579;-69
2020/12/31 05:11:18;;;;;;;4.72;2.50;;;2.60;68.90;;;;;;5008339;28;81393;-68
2020/12/31 05:13:48;;;;;;;7.10;3.28;;;2.70;68.90;;;;;;5008756;28;80853;-75
2020/12/31 05:16:26;;;;;;;9.00;4.18;;;2.70;68.90;;;;;;5009490;28;79742;-78
2020/12/31 05:18:52;;;;;;;5.18;2.50;;;2.70;69.00;;;;;;4991776;28;81827;-81
2020/12/31 05:21:18;;;;;;;6.45;2.28;;;2.70;69.20;;;;;;5009306;28;80099;-71
2020/12/31 05:23:44;;;;;;;5.07;2.30;;;2.70;69.20;;;;;;5008995;28;79667;-69
2020/12/31 05:26:10;;;;;;;5.22;2.42;;;2.70;69.40;;;;;;5008382;28;80409;-72
2020/12/31 05:28:37;;;;;;;4.82;2.40;;;2.70;69.20;;;;;;5008390;28;80583;-71
2020/12/31 05:31:07;;;;;;;4.80;2.13;;;2.70;69.20;;;;;;4990027;28;83178;-67
2020/12/31 05:33:35;;;;;;;7.13;2.53;;;2.70;69.30;;;;;;5008298;28;80626;-71
2020/12/31 05:36:18;;;;;;;8.60;4.43;;;2.70;69.40;;;;;;4989418;28;83255;-77
2020/12/31 05:39:02;;;;;;;6.68;2.60;;;2.70;69.50;;;;;;5007907;28;81711;-68
2020/12/31 05:41:34;;;;;;;6.05;2.70;;;2.70;69.60;;;;;;4989833;28;83630;-72
2020/12/31 05:44:05;;;;;;;6.50;2.58;;;2.60;69.40;;;;;;4990793;28;82775;-70
2020/12/31 05:46:31;;;;;;;4.85;2.40;;;2.60;69.50;;;;;;4990072;28;80452;-69
2020/12/31 05:49:04;;;;;;;5.05;2.47;;;2.60;69.50;;;;;;4990087;28;80784;-68
2020/12/31 05:51:31;;;;;;;4.60;2.10;;;2.60;69.50;;;;;;5007917;28;80481;-69
2020/12/31 05:54:14;;;;;;;5.82;2.50;;;2.60;69.60;;;;;;5007971;28;81088;-70
2020/12/31 05:56:42;;;;;;;7.50;1.80;;;2.60;69.60;;;;;;5008415;28;79697;-68
2020/12/31 05:59:28;;;;;;;3.83;2.00;;;2.50;69.40;;;;;;5007612;28;80515;-69
2020/12/31 06:01:58;;;;;;;5.72;2.45;;;2.50;69.30;;;;;;5008025;28;80259;-69
2020/12/31 06:04:29;;;;;;;5.03;2.60;;;2.40;69.40;;;;;;5007858;28;79892;-74
2020/12/31 06:07:03;;;;;;;7.57;3.78;;;2.40;69.50;;;;;;5007162;28;80804;-74
2020/12/31 06:09:30;;;;;;;4.78;3.10;;;2.30;69.50;;;;;;4988814;28;81914;-72
2020/12/31 06:12:01;;;;;;;6.53;3.30;;;2.30;69.50;;;;;;5008006;28;80333;-81
2020/12/31 06:14:29;;;;;;;7.28;2.97;;;2.30;69.50;;;;;;4989596;28;80020;-76
2020/12/31 06:16:57;;;;;;;7.65;3.25;;;2.30;69.50;;;;;;5007800;28;79943;-73
2020/12/31 06:19:29;;;;;;;6.18;3.00;;;2.40;69.50;;;;;;4989725;28;79935;-74
2020/12/31 06:22:04;;;;;;;6.78;3.00;;;2.30;69.50;;;;;;5007767;28;80307;-70
2020/12/31 06:24:46;;;;;;;8.27;2.90;;;2.40;69.50;;;;;;4989593;28;81326;-75
2020/12/31 06:27:14;;;;;;;6.43;2.50;;;2.40;69.60;;;;;;4989232;28;82419;-72
2020/12/31 06:29:44;;;;;;;6.72;3.38;;;2.30;69.70;;;;;;5005698;28;80777;-72
2020/12/31 06:32:31;;;;;;;6.35;2.17;;;2.40;69.80;;;;;;4989271;28;80715;-68
2020/12/31 06:35:10;;;;;;;6.53;3.00;;;2.30;69.60;;;;;;5007064;28;80456;-75
2020/12/31 06:37:37;;;;;;;6.90;2.65;;;2.30;69.70;;;;;;5007138;28;80232;-73
2020/12/31 06:40:22;;;;;;;5.18;2.55;;;2.20;69.70;;;;;;4989070;28;82779;-70
2020/12/31 06:43:11;;;;;;;8.55;2.80;;;2.30;69.70;;;;;;4989074;28;80477;-70
2020/12/31 06:45:48;;;;;;;6.60;2.88;;;2.30;69.70;;;;;;4989054;28;80776;-72
2020/12/31 06:48:26;;;;;;;6.05;3.10;;;2.30;69.80;;;;;;5007054;28;80694;-73
2020/12/31 06:50:59;;;;;;;5.75;2.88;;;2.30;70.00;;;;;;4988259;28;83964;-73
2020/12/31 06:53:47;;;;;;;8.45;3.45;;;2.30;70.10;;;;;;5006970;28;80689;-70
2020/12/31 06:56:14;;;;;;;6.70;3.03;;;2.30;70.10;;;;;;5022349;28;81223;-73
2020/12/31 06:58:44;;;;;;;11.75;3.72;;;2.30;70.20;;;;;;5007887;28;81964;-70
2020/12/31 07:01:28;;;;;;;8.50;3.03;;;2.30;70.40;;;;;;5027145;28;80770;-73
2020/12/31 07:03:57;;;;;;;10.07;2.95;;;2.30;70.40;;;;;;5027124;28;80006;-71
2020/12/31 07:06:23;;;;;;;10.70;3.00;;;2.30;70.30;;;;;;5027743;28;80610;-70
2020/12/31 07:08:51;;;;;;;7.38;2.70;;;2.30;70.20;;;;;;5027088;28;80074;-68
2020/12/31 07:11:32;;;;;;;9.10;3.92;;;2.30;70.20;;;;;;5026949;28;80791;-69
2020/12/31 07:13:59;;;;;;;9.32;3.20;;;2.30;70.30;;;;;;5026416;28;80155;-69
2020/12/31 07:16:45;;;;;;;8.73;3.70;;;2.30;70.30;;;;;;5008357;28;82048;-70
2020/12/31 07:19:12;;;;;;;13.45;3.40;;;2.30;70.30;;;;;;5007924;28;80599;-71
2020/12/31 07:21:38;;;;;;;10.10;3.33;;;2.30;70.40;;;;;;5026906;28;81097;-72
2020/12/31 07:24:29;;;;;;;6.82;3.25;;;2.30;70.40;;;;;;5008239;28;81296;-71
2020/12/31 07:26:57;;;;;;;9.60;4.68;;;2.30;70.40;;;;;;5001765;28;80696;-73
2020/12/31 07:29:31;;;;;;;14.90;4.30;;;2.20;70.60;;;;;;4988414;28;80077;-71
2020/12/31 07:31:59;;;;;;;8.85;3.58;;;2.10;70.80;;;;;;4994387;28;81055;-73
2020/12/31 07:34:28;;;;;;;8.02;3.70;;;2.00;70.80;;;;;;5025325;28;80191;-70
2020/12/31 07:37:07;;;;;;;8.15;4.05;;;2.00;71.00;;;;;;5006260;28;80723;-74
2020/12/31 07:39:34;;;;;;;6.50;3.95;;;2.10;71.10;;;;;;5004574;28;81487;-72
2020/12/31 07:42:17;;;;;;;13.90;4.30;;;2.10;71.00;;;;;;5006486;28;79836;-70
2020/12/31 07:44:50;;;;;;;;;;;2.10;71.00;;;;;;5006745;28;80094;-72
2020/12/31 07:47:18;;;;;;;8.65;4.55;;;2.00;70.80;;;;;;5011509;28;74995;-70
2020/12/31 07:49:49;;;;;;;12.75;4.18;;;2.00;71.00;;;;;;5004532;28;79958;-73
2020/12/31 07:52:15;;;;;;;9.00;4.18;;;2.00;70.90;;;;;;5006324;28;81062;-71
2020/12/31 07:54:41;;;;;;;12.10;4.93;;;2.00;70.90;;;;;;5009263;28;80119;-72
2020/12/31 07:57:11;;;;;;;11.07;4.32;;;2.10;70.90;;;;;;5007865;28;82079;-71
2020/12/31 07:59:41;;;;;;;9.98;4.25;;;2.10;71.00;;;;;;5025849;28;80411;-68
2020/12/31 08:02:07;;;;;;;12.13;5.22;;;2.10;71.10;;;;;;5008251;28;83452;-69
2020/12/31 08:04:34;;;;;;;13.20;4.97;;;2.10;71.10;;;;;;5026135;28;80417;-72
2020/12/31 08:07:03;;;;;;;12.02;5.25;;;2.10;71.10;;;;;;5026320;28;79920;-69
2020/12/31 08:09:29;;;;;;;12.25;4.82;;;2.20;71.00;;;;;;5026171;28;80371;-71
2020/12/31 08:11:55;;;;;;;7.78;4.15;;;2.20;71.00;;;;;;5024500;28;80557;-72
2020/12/31 08:14:20;;;;;;;11.98;4.47;;;2.30;70.90;;;;;;5026039;28;81484;-69
2020/12/31 08:17:01;;;;;;;8.10;4.57;;;2.30;70.80;;;;;;5025738;28;80540;-73
2020/12/31 08:19:29;;;;;;;13.00;4.82;;;2.40;70.70;;;;;;5007895;28;83632;-69
2020/12/31 08:22:00;;;;;;;12.02;5.00;;;2.40;70.60;;;;;;5025893;28;81240;-72
2020/12/31 08:24:28;;;;;;;10.13;4.68;;;2.60;70.40;;;;;;5026320;28;80849;-78
2020/12/31 08:26:58;;;;;;;13.77;5.18;;;2.80;70.00;;;;;;5007655;28;81688;-71
2020/12/31 08:29:27;;;;;;;8.90;5.35;;;3.00;69.50;;;;;;5025735;28;80803;-74
2020/12/31 08:31:54;;;;;;;10.68;5.10;;;3.20;68.90;;;;;;5009889;28;82153;-74
2020/12/31 08:34:26;;;;;;;7.78;4.45;;;3.40;68.30;;;;;;5029033;28;80251;-82
2020/12/31 08:36:54;;;;;;;11.75;4.90;;;3.60;67.60;;;;;;5010361;28;83263;-77
2020/12/31 08:39:21;;;;;;;10.52;5.47;;;3.60;67.20;;;;;;5010710;28;81961;-79
2020/12/31 08:42:00;;;;;;;12.93;5.40;;;3.80;67.10;;;;;;5010500;28;81927;-75
2020/12/31 08:44:27;;;;;;;9.38;5.00;;;3.90;66.60;;;;;;5028949;28;79893;-77
2020/12/31 08:46:53;;;;;;;10.05;4.72;;;3.90;66.10;;;;;;4991665;28;83584;-72
2020/12/31 08:49:25;;;;;;;10.48;4.68;;;3.90;66.20;;;;;;5009099;28;80212;-74
2020/12/31 08:51:52;;;;;;;9.65;5.35;;;3.80;66.20;;;;;;5008966;28;80133;-75
2020/12/31 08:54:19;;;;;;;12.15;5.55;;;3.70;66.40;;;;;;4991480;28;80201;-73
2020/12/31 08:56:45;;;;;;;10.40;5.32;;;3.70;66.40;;;;;;5008552;28;81167;-71
2020/12/31 08:59:15;;;;;;;15.32;5.10;;;3.70;66.50;;;;;;5008729;28;80091;-77
2020/12/31 09:01:46;;;;;;;12.35;5.45;;;3.70;66.50;;;;;;5008989;28;81078;-70
2020/12/31 09:04:14;;;;;;;16.40;5.07;;;3.60;66.60;;;;;;5009068;28;80161;-74
2020/12/31 09:06:44;;;;;;;12.40;5.55;;;3.60;66.60;;;;;;5008822;28;79912;-71
2020/12/31 09:09:16;;;;;;;10.10;5.53;;;3.70;66.70;;;;;;5015793;28;80017;-65
2020/12/31 09:12:08;;;;;;;13.23;5.45;;;3.70;66.70;;;;;;5028291;28;79879;-62
2020/12/31 09:14:36;;;;;;;11.75;4.97;;;3.90;66.70;;;;;;5028631;28;80051;-66
2020/12/31 09:17:22;;;;;;;11.13;5.38;;;4.10;66.30;;;;;;5011034;28;83625;-66
2020/12/31 09:19:55;;;;;;;10.38;5.05;;;4.30;65.80;;;;;;5009986;28;82902;-65
2020/12/31 09:22:22;;;;;;;11.82;5.72;;;4.40;65.50;;;;;;5028927;28;80568;-71
2020/12/31 09:24:48;;;;;;;22.35;5.72;;;4.70;64.80;;;;;;5028814;28;80022;-63
2020/12/31 09:27:25;;;;;;;12.75;4.90;;;4.90;64.30;;;;;;5010522;28;81947;-62
2020/12/31 09:29:57;;;;;;;9.40;4.28;;;5.30;63.40;;;;;;5028518;28;81249;-60
2020/12/31 09:32:23;;;;;;;8.63;3.90;;;6.10;61.50;;;;;;5028460;28;81652;-63
2020/12/31 09:34:49;;;;;;;14.30;5.20;;;6.70;59.50;;;;;;5028387;28;81188;-69
2020/12/31 09:37:16;;;;;;;8.70;4.35;;;7.30;58.10;;;;;;5028375;28;82346;-73
2020/12/31 09:39:43;;;;;;;11.57;4.78;;;7.80;56.10;;;;;;5028872;28;80160;-63
2020/12/31 09:42:09;;;;;;;10.57;4.43;;;8.60;53.60;;;;;;5028086;28;80633;-68
2020/12/31 09:44:35;;;;;;;7.95;4.60;;;9.10;52.10;;;;;;5028798;28;79891;-63
2020/12/31 09:47:01;;;;;;;12.00;4.97;;;9.20;51.70;;;;;;5028453;28;81952;-63
2020/12/31 09:49:27;;;;;;;13.45;5.35;;;9.20;51.40;;;;;;5028132;28;81458;-62
2020/12/31 09:51:52;;;;;;;14.10;5.57;;;9.50;50.60;;;;;;5027462;28;80786;-62
2020/12/31 09:54:19;;;;;;;11.73;5.38;;;9.80;49.70;;;;;;5009761;28;83104;-63
2020/12/31 09:56:45;;;;;;;9.68;5.25;;;10.00;49.20;;;;;;5028696;28;80483;-63
2020/12/31 09:59:10;;;;;;;9.60;5.40;;;10.40;48.50;;;;;;5008495;28;81709;-62
2020/12/31 10:01:36;;;;;;;11.00;5.43;;;11.00;46.90;;;;;;5027974;28;82369;-64
2020/12/31 10:04:02;;;;;;;12.38;5.43;;;10.90;46.90;;;;;;5010095;28;83009;-61
2020/12/31 10:06:28;;;;;;;14.25;5.80;;;10.80;47.20;;;;;;5009418;28;83494;-62
2020/12/31 10:08:54;;;;;;;11.65;4.85;;;11.30;46.30;;;;;;5028284;28;80721;-62
2020/12/31 10:11:20;;;;;;;11.48;5.10;;;11.80;45.50;;;;;;5028134;28;80462;-62
2020/12/31 10:13:46;;;;;;;10.65;4.90;;;12.50;43.80;;;;;;5028127;28;79994;-61
2020/12/31 10:16:12;;;;;;;11.02;5.78;;;13.00;42.40;;;;;;5026664;28;80566;-61
2020/12/31 10:18:38;;;;;;;11.05;5.35;;;13.20;42.10;;;;;;5025996;28;80108;-62
2020/12/31 10:21:04;;;;;;;9.18;4.30;;;13.20;42.10;;;;;;5026866;28;79882;-62
2020/12/31 10:23:29;;;;;;;14.07;5.43;;;12.90;42.40;;;;;;5028068;28;80318;-64
2020/12/31 10:25:56;;;;;;;14.25;5.65;;;12.50;43.50;;;;;;5027713;28;80589;-61
2020/12/31 10:28:22;;;;;;;10.82;5.00;;;13.70;42.20;;;;;;5009311;28;83310;-63
2020/12/31 10:30:49;;;;;;;11.20;5.13;;;15.60;38.70;;;;;;5009634;28;81922;-62
2020/12/31 10:33:15;;;;;;;12.55;4.97;;;16.90;36.00;;;;;;5009634;28;82967;-62
2020/12/31 10:35:42;;;;;;;14.93;5.32;;;17.60;34.70;;;;;;5027279;28;82026;-62
2020/12/31 10:38:08;;;;;;;7.55;3.90;;;18.10;34.00;;;;;;5027903;28;80335;-62
2020/12/31 10:40:33;;;;;;;8.60;3.58;;;18.50;33.40;;;;;;5027436;28;81794;-62
2020/12/31 10:42:59;;;;;;;7.47;2.70;;;18.90;32.60;;;;;;5009433;28;83500;-61
2020/12/31 10:45:25;;;;;;;8.93;2.88;;;19.90;30.80;;;;;;5027497;28;80841;-62
2020/12/31 10:47:51;;;;;;;8.18;3.15;;;20.60;29.60;;;;;;5028621;28;80736;-61
2020/12/31 10:50:17;;;;;;;10.70;3.40;;;21.10;29.00;;;;;;5027044;28;81824;-62
2020/12/31 10:52:42;;;;;;;6.70;2.35;;;20.20;30.00;;;;;;5027427;28;81350;-63
2020/12/31 10:55:08;;;;;;;5.78;2.15;;;18.40;32.00;;;;;;5026989;28;80567;-62
2020/12/31 10:57:34;;;;;;;4.68;2.50;;;17.90;32.80;;;;;;5026734;28;80826;-61
2020/12/31 10:59:59;;;;;;;7.68;3.35;;;17.90;32.50;;;;;;5027292;28;80513;-62
2020/12/31 11:02:25;;;;;;;8.52;2.50;;;18.40;32.10;;;;;;5027306;28;80314;-62
2020/12/31 11:04:51;;;;;;;5.60;2.08;;;19.80;30.50;;;;;;5027419;28;80634;-61
2020/12/31 11:07:17;;;;;;;7.70;2.35;;;20.80;29.20;;;;;;5027651;28;80607;-63
2020/12/31 11:09:42;;;;;;;5.40;2.45;;;21.50;28.10;;;;;;5026896;28;81732;-62
2020/12/31 11:12:08;;;;;;;4.72;2.40;;;21.50;28.10;;;;;;5009052;28;81202;-62
2020/12/31 11:14:34;;;;;;;5.43;2.33;;;22.40;27.20;;;;;;5027121;28;80326;-62
2020/12/31 11:16:59;;;;;;;4.35;1.80;;;21.80;27.70;;;;;;5027447;28;80965;-64
2020/12/31 11:19:26;;;;;;;4.35;1.75;;;21.00;28.60;;;;;;5008886;28;81993;-62
2020/12/31 11:21:52;;;;;;;7.28;2.38;;;21.00;28.80;;;;;;5026869;28;79953;-63
2020/12/31 11:24:18;;;;;;;4.47;1.83;;;21.20;28.50;;;;;;5027091;28;80967;-61
2020/12/31 11:26:44;;;;;;;14.75;2.33;;;20.10;30.20;;;;;;5026911;28;79847;-63
2020/12/31 11:29:11;;;;;;;6.28;2.13;;;20.40;29.90;;;;;;5026935;28;81987;-63
2020/12/31 11:31:37;;;;;;;8.02;1.73;;;20.90;29.40;;;;;;5027395;28;80212;-63
2020/12/31 11:34:03;;;;;;;8.30;2.05;;;21.70;28.50;;;;;;5009271;28;80743;-63
2020/12/31 11:36:29;;;;;;;5.35;1.98;;;22.40;27.60;;;;;;5026538;28;80800;-63
2020/12/31 11:38:55;;;;;;;4.78;2.15;;;23.40;26.60;;;;;;5027193;28;79767;-63
2020/12/31 11:41:22;;;;;;;9.68;2.85;;;24.00;26.10;;;;;;5008670;28;82132;-64
2020/12/31 11:43:48;;;;;;;4.82;2.13;;;25.00;25.00;;;;;;5008361;28;80800;-63
2020/12/31 11:46:14;;;;;;;6.40;2.50;;;25.30;24.70;;;;;;5027193;28;80258;-63
2020/12/31 11:48:40;;;;;;;11.18;2.75;;;24.90;25.00;;;;;;5026609;28;80641;-63
2020/12/31 11:51:09;;;;;;;4.10;1.80;;;24.20;25.50;;;;;;5026503;28;81309;-63
2020/12/31 11:53:35;;;;;;;4.60;2.45;;;23.80;25.90;;;;;;5026700;28;80802;-63
2020/12/31 11:56:02;;;;;;;5.35;2.38;;;23.90;26.10;;;;;;5026984;28;80152;-63
2020/12/31 11:58:28;;;;;;;5.75;2.22;;;24.30;25.50;;;;;;5026274;28;80493;-64
2020/12/31 12:00:55;;;;;;;5.25;2.17;;;24.00;25.70;;;;;;5026264;28;81479;-65
2020/12/31 12:03:20;;;;;;;9.63;3.28;;;24.60;25.30;;;;;;5006930;28;83323;-64
2020/12/31 12:05:51;;;;;;;7.50;2.90;;;25.20;24.60;;;;;;5028338;28;80343;-65
2020/12/31 12:08:17;;;;;;;7.13;3.03;;;24.00;25.60;;;;;;5030400;28;80093;-64
2020/12/31 12:10:46;;;;;;;4.20;1.85;;;24.30;25.40;;;;;;5030132;28;80220;-66
2020/12/31 12:13:12;;;;;;;4.22;1.63;;;23.30;26.30;;;;;;5030025;28;80610;-64
2020/12/31 12:15:41;;;;;;;3.97;1.80;;;22.00;28.00;;;;;;5030251;28;79769;-64
2020/12/31 12:18:06;;;;;;;8.50;2.08;;;22.00;28.50;;;;;;5011279;28;81133;-64
2020/12/31 12:20:32;;;;;;;5.10;1.88;;;23.80;26.70;;;;;;5011444;28;81434;-64
2020/12/31 12:22:58;;;;;;;3.45;1.67;;;24.90;25.40;;;;;;5011503;28;83136;-64
2020/12/31 12:25:23;;;;;;;5.05;1.60;;;25.10;24.90;;;;;;5029827;28;79709;-65
2020/12/31 12:27:49;;;;;;;3.58;1.50;;;25.30;25.00;;;;;;5029853;28;80538;-65
2020/12/31 12:30:15;;;;;;;6.60;1.60;;;25.90;24.10;;;;;;5029699;28;80369;-63
2020/12/31 12:32:41;;;;;;;2.72;1.30;;;25.30;24.00;;;;;;5029987;28;80623;-63
2020/12/31 12:35:08;;;;;;;4.25;1.50;;;24.90;24.60;;;;;;5029131;28;81448;-64
2020/12/31 12:37:35;;;;;;;3.85;1.60;;;24.90;24.60;;;;;;5029630;28;82627;-63
2020/12/31 12:40:03;;;;;;;4.88;1.52;;;24.70;24.70;;;;;;5029434;28;80441;-64
2020/12/31 12:42:34;;;;;;;3.63;1.73;;;25.40;24.10;;;;;;5011230;28;82416;-62
2020/12/31 12:45:02;;;;;;;3.92;1.70;;;25.50;24.00;;;;;;5029705;28;80184;-65
2020/12/31 12:47:28;;;;;;;5.07;1.92;;;25.70;23.90;;;;;;5029638;28;80949;-66
2020/12/31 12:49:54;;;;;;;2.88;1.50;;;25.70;23.90;;;;;;5011528;28;80319;-66
2020/12/31 12:52:20;;;;;;;2.63;1.30;;;25.30;24.20;;;;;;5029219;28;80615;-65
2020/12/31 12:54:45;;;;;;;2.35;1.00;;;24.20;25.10;;;;;;5029611;28;80266;-65
2020/12/31 12:57:11;;;;;;;4.60;1.65;;;23.20;26.10;;;;;;5029390;28;80984;-64